Bellview, Illinois
Current Conditions -  °F | °C
As of 10:54 PM on Monday 26 Jan 2015 (Local Time) from KPIA Reporting Station
Haze Haze  
Wind Chill:   Ceiling: 1900
Heat Index:   Visibility: 5mi
Dew Point: -1°   Wind: 0mph
Humidity: 92%   Direction: NA
Pressure: 29.89"   Gusts: NA
Location:  40.7064°N, 89.6585°W
Report Text: KPIA 270454Z 00000KT 5SM BR BKN019 OVC026 00/M01 A2989 RMK AO2 SLP129 T00001011
Loading
Personal Weather Stations






























Interactive Weather Map New forecast layout! Learn more

10-Day Weather Forecast

Advertisements
Track Severe Weather on mobile